sensor_id;sensor_type;location;lat;lon;timestamp;P1;durP1;ratioP1;P2;durP2;ratioP2
81504;SDS011;70907;52.514;5.726;2023-07-09T00:02:19;11.30;;;8.40;;
81504;SDS011;70907;52.514;5.726;2023-07-09T00:04:45;12.65;;;8.02;;
81504;SDS011;70907;52.514;5.726;2023-07-09T00:07:15;13.93;;;9.07;;
81504;SDS011;70907;52.514;5.726;2023-07-09T00:09:44;13.13;;;8.77;;
81504;SDS011;70907;52.514;5.726;2023-07-09T00:12:13;12.20;;;8.65;;
81504;SDS011;70907;52.514;5.726;2023-07-09T00:14:40;14.23;;;9.23;;
81504;SDS011;70907;52.514;5.726;2023-07-09T00:17:10;12.05;;;9.32;;
81504;SDS011;70907;52.514;5.726;2023-07-09T00:19:47;11.70;;;9.10;;
81504;SDS011;70907;52.514;5.726;2023-07-09T00:22:14;14.03;;;8.93;;
81504;SDS011;70907;52.514;5.726;2023-07-09T00:24:44;12.50;;;9.55;;
81504;SDS011;70907;52.514;5.726;2023-07-09T00:27:11;14.52;;;9.52;;
81504;SDS011;70907;52.514;5.726;2023-07-09T00:29:37;15.20;;;9.45;;
81504;SDS011;70907;52.514;5.726;2023-07-09T00:32:03;15.03;;;9.60;;
81504;SDS011;70907;52.514;5.726;2023-07-09T00:34:30;12.65;;;9.30;;
81504;SDS011;70907;52.514;5.726;2023-07-09T00:36:55;11.87;;;9.53;;
81504;SDS011;70907;52.514;5.726;2023-07-09T00:39:21;13.23;;;8.87;;
81504;SDS011;70907;52.514;5.726;2023-07-09T00:41:48;13.57;;;9.25;;
81504;SDS011;70907;52.514;5.726;2023-07-09T00:44:25;14.32;;;9.27;;
81504;SDS011;70907;52.514;5.726;2023-07-09T00:49:26;13.63;;;9.98;;
81504;SDS011;70907;52.514;5.726;2023-07-09T00:51:55;18.77;;;10.57;;
81504;SDS011;70907;52.514;5.726;2023-07-09T00:54:36;14.20;;;9.60;;
81504;SDS011;70907;52.514;5.726;2023-07-09T00:57:12;16.10;;;10.32;;
81504;SDS011;70907;52.514;5.726;2023-07-09T00:59:43;16.13;;;10.68;;
81504;SDS011;70907;52.514;5.726;2023-07-09T01:02:15;15.23;;;9.98;;
81504;SDS011;70907;52.514;5.726;2023-07-09T01:04:42;15.82;;;10.85;;
81504;SDS011;70907;52.514;5.726;2023-07-09T01:07:08;13.60;;;10.00;;
81504;SDS011;70907;52.514;5.726;2023-07-09T01:09:33;14.27;;;10.27;;
81504;SDS011;70907;52.514;5.726;2023-07-09T01:12:05;15.38;;;10.68;;
81504;SDS011;70907;52.514;5.726;2023-07-09T01:14:33;14.23;;;9.82;;
81504;SDS011;70907;52.514;5.726;2023-07-09T01:17:01;14.18;;;10.30;;
81504;SDS011;70907;52.514;5.726;2023-07-09T01:19:35;14.48;;;9.85;;
81504;SDS011;70907;52.514;5.726;2023-07-09T01:22:08;15.73;;;10.77;;
81504;SDS011;70907;52.514;5.726;2023-07-09T01:27:30;15.10;;;10.10;;
81504;SDS011;70907;52.514;5.726;2023-07-09T01:29:58;14.63;;;10.30;;
81504;SDS011;70907;52.514;5.726;2023-07-09T01:32:25;14.85;;;10.35;;
81504;SDS011;70907;52.514;5.726;2023-07-09T01:34:52;16.70;;;11.00;;
81504;SDS011;70907;52.514;5.726;2023-07-09T01:37:22;13.07;;;10.20;;
81504;SDS011;70907;52.514;5.726;2023-07-09T01:39:50;13.63;;;9.40;;
81504;SDS011;70907;52.514;5.726;2023-07-09T01:42:17;16.25;;;10.38;;
81504;SDS011;70907;52.514;5.726;2023-07-09T01:44:43;14.18;;;11.02;;
81504;SDS011;70907;52.514;5.726;2023-07-09T01:47:11;15.10;;;10.45;;
81504;SDS011;70907;52.514;5.726;2023-07-09T01:49:36;14.35;;;10.63;;
81504;SDS011;70907;52.514;5.726;2023-07-09T01:52:05;14.20;;;10.57;;
81504;SDS011;70907;52.514;5.726;2023-07-09T01:54:33;13.32;;;10.38;;
81504;SDS011;70907;52.514;5.726;2023-07-09T01:57:15;13.15;;;10.18;;
81504;SDS011;70907;52.514;5.726;2023-07-09T01:59:48;12.23;;;9.63;;
81504;SDS011;70907;52.514;5.726;2023-07-09T02:02:15;15.85;;;10.70;;
81504;SDS011;70907;52.514;5.726;2023-07-09T02:04:53;13.18;;;10.80;;
81504;SDS011;70907;52.514;5.726;2023-07-09T02:07:21;14.63;;;10.40;;
81504;SDS011;70907;52.514;5.726;2023-07-09T02:09:48;17.10;;;10.50;;
81504;SDS011;70907;52.514;5.726;2023-07-09T02:12:14;13.65;;;10.88;;
81504;SDS011;70907;52.514;5.726;2023-07-09T02:14:40;15.10;;;10.73;;
81504;SDS011;70907;52.514;5.726;2023-07-09T02:17:06;14.52;;;10.75;;
81504;SDS011;70907;52.514;5.726;2023-07-09T02:19:33;15.93;;;11.45;;
81504;SDS011;70907;52.514;5.726;2023-07-09T02:21:58;13.40;;;10.48;;
81504;SDS011;70907;52.514;5.726;2023-07-09T02:24:24;15.13;;;10.52;;
81504;SDS011;70907;52.514;5.726;2023-07-09T02:27:00;14.35;;;10.10;;
81504;SDS011;70907;52.514;5.726;2023-07-09T02:29:27;14.95;;;10.02;;
81504;SDS011;70907;52.514;5.726;2023-07-09T02:31:54;14.25;;;10.27;;
81504;SDS011;70907;52.514;5.726;2023-07-09T02:34:20;15.10;;;10.80;;
81504;SDS011;70907;52.514;5.726;2023-07-09T02:36:50;14.43;;;10.77;;
81504;SDS011;70907;52.514;5.726;2023-07-09T02:39:16;14.82;;;9.90;;
81504;SDS011;70907;52.514;5.726;2023-07-09T02:41:42;13.23;;;9.68;;
81504;SDS011;70907;52.514;5.726;2023-07-09T02:44:08;14.40;;;11.15;;
81504;SDS011;70907;52.514;5.726;2023-07-09T02:46:34;16.58;;;12.18;;
81504;SDS011;70907;52.514;5.726;2023-07-09T02:49:00;14.95;;;10.55;;
81504;SDS011;70907;52.514;5.726;2023-07-09T02:51:25;15.65;;;11.43;;
81504;SDS011;70907;52.514;5.726;2023-07-09T02:53:55;13.18;;;10.88;;
81504;SDS011;70907;52.514;5.726;2023-07-09T02:56:22;14.57;;;11.68;;
81504;SDS011;70907;52.514;5.726;2023-07-09T02:58:48;15.07;;;10.88;;
81504;SDS011;70907;52.514;5.726;2023-07-09T03:01:14;14.55;;;10.93;;
81504;SDS011;70907;52.514;5.726;2023-07-09T03:03:39;14.50;;;10.63;;
81504;SDS011;70907;52.514;5.726;2023-07-09T03:06:05;13.53;;;10.40;;
81504;SDS011;70907;52.514;5.726;2023-07-09T03:08:31;14.75;;;10.90;;
81504;SDS011;70907;52.514;5.726;2023-07-09T03:10:56;15.02;;;11.05;;
81504;SDS011;70907;52.514;5.726;2023-07-09T03:13:22;13.35;;;11.70;;
81504;SDS011;70907;52.514;5.726;2023-07-09T03:15:54;14.07;;;10.87;;
81504;SDS011;70907;52.514;5.726;2023-07-09T03:18:23;15.68;;;11.75;;
81504;SDS011;70907;52.514;5.726;2023-07-09T03:20:49;16.27;;;12.13;;
81504;SDS011;70907;52.514;5.726;2023-07-09T03:23:15;15.32;;;11.45;;
81504;SDS011;70907;52.514;5.726;2023-07-09T03:25:41;15.13;;;12.37;;
81504;SDS011;70907;52.514;5.726;2023-07-09T03:28:06;16.52;;;10.88;;
81504;SDS011;70907;52.514;5.726;2023-07-09T03:30:32;15.77;;;11.60;;
81504;SDS011;70907;52.514;5.726;2023-07-09T03:32:58;15.27;;;11.65;;
81504;SDS011;70907;52.514;5.726;2023-07-09T03:35:23;16.17;;;12.03;;
81504;SDS011;70907;52.514;5.726;2023-07-09T03:37:48;17.03;;;11.57;;
81504;SDS011;70907;52.514;5.726;2023-07-09T03:40:19;16.23;;;10.77;;
81504;SDS011;70907;52.514;5.726;2023-07-09T03:42:46;13.73;;;11.43;;
81504;SDS011;70907;52.514;5.726;2023-07-09T03:45:11;14.13;;;11.53;;
81504;SDS011;70907;52.514;5.726;2023-07-09T03:47:37;14.27;;;11.40;;
81504;SDS011;70907;52.514;5.726;2023-07-09T03:50:02;14.87;;;12.57;;
81504;SDS011;70907;52.514;5.726;2023-07-09T03:52:28;14.77;;;11.73;;
81504;SDS011;70907;52.514;5.726;2023-07-09T03:54:53;15.17;;;11.40;;
81504;SDS011;70907;52.514;5.726;2023-07-09T03:57:18;13.83;;;11.03;;
81504;SDS011;70907;52.514;5.726;2023-07-09T03:59:43;14.60;;;10.57;;
81504;SDS011;70907;52.514;5.726;2023-07-09T04:02:09;16.55;;;11.45;;
81504;SDS011;70907;52.514;5.726;2023-07-09T04:04:34;16.37;;;11.93;;
81504;SDS011;70907;52.514;5.726;2023-07-09T04:06:59;15.10;;;11.13;;
81504;SDS011;70907;52.514;5.726;2023-07-09T04:09:25;16.53;;;11.87;;
81504;SDS011;70907;52.514;5.726;2023-07-09T04:11:50;17.43;;;10.87;;
81504;SDS011;70907;52.514;5.726;2023-07-09T04:14:15;14.60;;;10.95;;
81504;SDS011;70907;52.514;5.726;2023-07-09T04:16:41;14.07;;;10.43;;
81504;SDS011;70907;52.514;5.726;2023-07-09T04:19:06;16.43;;;11.17;;
81504;SDS011;70907;52.514;5.726;2023-07-09T04:21:31;14.30;;;11.43;;
81504;SDS011;70907;52.514;5.726;2023-07-09T04:23:57;14.67;;;10.83;;
81504;SDS011;70907;52.514;5.726;2023-07-09T04:26:22;14.02;;;10.52;;
81504;SDS011;70907;52.514;5.726;2023-07-09T04:28:48;15.75;;;11.98;;
81504;SDS011;70907;52.514;5.726;2023-07-09T04:31:13;15.00;;;11.32;;
81504;SDS011;70907;52.514;5.726;2023-07-09T04:33:39;14.73;;;11.93;;
81504;SDS011;70907;52.514;5.726;2023-07-09T04:36:05;14.95;;;11.90;;
81504;SDS011;70907;52.514;5.726;2023-07-09T04:38:30;16.02;;;12.73;;
81504;SDS011;70907;52.514;5.726;2023-07-09T04:40:56;15.73;;;11.50;;
81504;SDS011;70907;52.514;5.726;2023-07-09T04:43:21;16.77;;;12.30;;
81504;SDS011;70907;52.514;5.726;2023-07-09T04:45:46;15.80;;;12.67;;
81504;SDS011;70907;52.514;5.726;2023-07-09T04:48:12;17.15;;;12.30;;
81504;SDS011;70907;52.514;5.726;2023-07-09T04:50:38;15.87;;;11.97;;
81504;SDS011;70907;52.514;5.726;2023-07-09T04:53:05;14.25;;;11.70;;
81504;SDS011;70907;52.514;5.726;2023-07-09T04:55:30;17.07;;;12.57;;
81504;SDS011;70907;52.514;5.726;2023-07-09T04:57:56;16.50;;;11.50;;
81504;SDS011;70907;52.514;5.726;2023-07-09T05:00:21;16.57;;;12.33;;
81504;SDS011;70907;52.514;5.726;2023-07-09T05:02:47;16.20;;;12.55;;
81504;SDS011;70907;52.514;5.726;2023-07-09T05:05:12;13.68;;;11.85;;
81504;SDS011;70907;52.514;5.726;2023-07-09T05:07:38;15.77;;;12.52;;
81504;SDS011;70907;52.514;5.726;2023-07-09T05:10:04;14.88;;;11.82;;
81504;SDS011;70907;52.514;5.726;2023-07-09T05:12:30;16.13;;;12.35;;
81504;SDS011;70907;52.514;5.726;2023-07-09T05:14:56;16.40;;;12.10;;
81504;SDS011;70907;52.514;5.726;2023-07-09T05:17:22;15.37;;;11.20;;
81504;SDS011;70907;52.514;5.726;2023-07-09T05:19:48;16.17;;;11.90;;
81504;SDS011;70907;52.514;5.726;2023-07-09T05:22:14;16.52;;;12.55;;
81504;SDS011;70907;52.514;5.726;2023-07-09T05:24:40;15.50;;;12.13;;
81504;SDS011;70907;52.514;5.726;2023-07-09T05:27:06;14.45;;;11.40;;
81504;SDS011;70907;52.514;5.726;2023-07-09T05:29:31;14.43;;;12.60;;
81504;SDS011;70907;52.514;5.726;2023-07-09T05:31:57;13.80;;;12.13;;
81504;SDS011;70907;52.514;5.726;2023-07-09T05:34:22;14.33;;;12.37;;
81504;SDS011;70907;52.514;5.726;2023-07-09T05:36:47;15.77;;;12.63;;
81504;SDS011;70907;52.514;5.726;2023-07-09T05:39:13;13.93;;;12.27;;
81504;SDS011;70907;52.514;5.726;2023-07-09T05:41:38;16.45;;;13.02;;
81504;SDS011;70907;52.514;5.726;2023-07-09T05:44:04;14.70;;;11.80;;
81504;SDS011;70907;52.514;5.726;2023-07-09T05:46:33;13.97;;;11.90;;
81504;SDS011;70907;52.514;5.726;2023-07-09T05:49:01;15.90;;;11.85;;
81504;SDS011;70907;52.514;5.726;2023-07-09T05:51:26;16.23;;;11.93;;
81504;SDS011;70907;52.514;5.726;2023-07-09T05:53:51;14.43;;;12.80;;
81504;SDS011;70907;52.514;5.726;2023-07-09T05:56:17;14.83;;;11.90;;
81504;SDS011;70907;52.514;5.726;2023-07-09T05:58:42;14.75;;;12.38;;
81504;SDS011;70907;52.514;5.726;2023-07-09T06:01:07;14.30;;;11.67;;
81504;SDS011;70907;52.514;5.726;2023-07-09T06:03:33;14.73;;;12.40;;
81504;SDS011;70907;52.514;5.726;2023-07-09T06:05:58;15.90;;;12.95;;
81504;SDS011;70907;52.514;5.726;2023-07-09T06:08:25;15.50;;;12.13;;
81504;SDS011;70907;52.514;5.726;2023-07-09T06:10:55;18.38;;;12.07;;
81504;SDS011;70907;52.514;5.726;2023-07-09T06:13:22;15.68;;;12.70;;
81504;SDS011;70907;52.514;5.726;2023-07-09T06:15:49;16.17;;;13.68;;
81504;SDS011;70907;52.514;5.726;2023-07-09T06:18:16;14.43;;;12.68;;
81504;SDS011;70907;52.514;5.726;2023-07-09T06:20:45;15.32;;;12.48;;
81504;SDS011;70907;52.514;5.726;2023-07-09T06:23:11;14.32;;;12.07;;
81504;SDS011;70907;52.514;5.726;2023-07-09T06:25:37;14.93;;;12.57;;
81504;SDS011;70907;52.514;5.726;2023-07-09T06:28:03;17.83;;;13.30;;
81504;SDS011;70907;52.514;5.726;2023-07-09T06:30:29;13.93;;;12.43;;
81504;SDS011;70907;52.514;5.726;2023-07-09T06:32:54;15.23;;;12.95;;
81504;SDS011;70907;52.514;5.726;2023-07-09T06:35:19;19.10;;;12.63;;
81504;SDS011;70907;52.514;5.726;2023-07-09T06:37:45;15.43;;;12.23;;
81504;SDS011;70907;52.514;5.726;2023-07-09T06:40:10;14.80;;;12.20;;
81504;SDS011;70907;52.514;5.726;2023-07-09T06:42:37;14.27;;;12.70;;
81504;SDS011;70907;52.514;5.726;2023-07-09T06:45:03;18.42;;;13.55;;
81504;SDS011;70907;52.514;5.726;2023-07-09T06:47:29;15.80;;;13.30;;
81504;SDS011;70907;52.514;5.726;2023-07-09T06:49:55;14.95;;;13.18;;
81504;SDS011;70907;52.514;5.726;2023-07-09T06:52:20;16.63;;;13.23;;
81504;SDS011;70907;52.514;5.726;2023-07-09T06:54:45;16.07;;;13.33;;
81504;SDS011;70907;52.514;5.726;2023-07-09T06:57:10;15.70;;;12.77;;
81504;SDS011;70907;52.514;5.726;2023-07-09T06:59:36;16.17;;;13.10;;
81504;SDS011;70907;52.514;5.726;2023-07-09T07:02:02;17.33;;;13.02;;
81504;SDS011;70907;52.514;5.726;2023-07-09T07:04:27;16.50;;;12.85;;
81504;SDS011;70907;52.514;5.726;2023-07-09T07:06:52;16.90;;;13.23;;
81504;SDS011;70907;52.514;5.726;2023-07-09T07:09:20;18.10;;;14.82;;
81504;SDS011;70907;52.514;5.726;2023-07-09T07:11:46;17.65;;;13.70;;
81504;SDS011;70907;52.514;5.726;2023-07-09T07:14:11;14.27;;;12.57;;
81504;SDS011;70907;52.514;5.726;2023-07-09T07:16:36;17.90;;;13.60;;
81504;SDS011;70907;52.514;5.726;2023-07-09T07:19:02;17.23;;;12.83;;
81504;SDS011;70907;52.514;5.726;2023-07-09T07:21:27;16.67;;;14.00;;
81504;SDS011;70907;52.514;5.726;2023-07-09T07:23:53;15.32;;;12.85;;
81504;SDS011;70907;52.514;5.726;2023-07-09T07:26:18;16.50;;;14.45;;
81504;SDS011;70907;52.514;5.726;2023-07-09T07:28:43;16.98;;;15.25;;
81504;SDS011;70907;52.514;5.726;2023-07-09T07:31:09;18.67;;;14.77;;
81504;SDS011;70907;52.514;5.726;2023-07-09T07:33:35;16.65;;;14.25;;
81504;SDS011;70907;52.514;5.726;2023-07-09T07:36:03;18.65;;;15.38;;
81504;SDS011;70907;52.514;5.726;2023-07-09T07:38:29;18.42;;;15.25;;
81504;SDS011;70907;52.514;5.726;2023-07-09T07:40:54;20.17;;;14.60;;
81504;SDS011;70907;52.514;5.726;2023-07-09T07:43:20;17.27;;;14.13;;
81504;SDS011;70907;52.514;5.726;2023-07-09T07:45:45;17.60;;;15.30;;
81504;SDS011;70907;52.514;5.726;2023-07-09T07:48:13;19.30;;;14.90;;
81504;SDS011;70907;52.514;5.726;2023-07-09T07:50:38;18.10;;;15.00;;
81504;SDS011;70907;52.514;5.726;2023-07-09T07:53:05;16.83;;;14.23;;
81504;SDS011;70907;52.514;5.726;2023-07-09T07:55:32;17.70;;;15.80;;
81504;SDS011;70907;52.514;5.726;2023-07-09T07:57:58;16.27;;;13.93;;
81504;SDS011;70907;52.514;5.726;2023-07-09T08:00:25;18.70;;;14.50;;
81504;SDS011;70907;52.514;5.726;2023-07-09T08:02:50;16.02;;;13.27;;
81504;SDS011;70907;52.514;5.726;2023-07-09T08:05:16;16.58;;;13.60;;
81504;SDS011;70907;52.514;5.726;2023-07-09T08:07:41;15.57;;;13.20;;
81504;SDS011;70907;52.514;5.726;2023-07-09T08:10:07;18.13;;;13.82;;
81504;SDS011;70907;52.514;5.726;2023-07-09T08:12:33;14.27;;;10.40;;
81504;SDS011;70907;52.514;5.726;2023-07-09T08:14:58;14.48;;;10.35;;
81504;SDS011;70907;52.514;5.726;2023-07-09T08:17:23;15.73;;;10.43;;
81504;SDS011;70907;52.514;5.726;2023-07-09T08:19:50;15.47;;;10.13;;
81504;SDS011;70907;52.514;5.726;2023-07-09T08:22:17;15.70;;;10.75;;
81504;SDS011;70907;52.514;5.726;2023-07-09T08:24:45;16.52;;;11.10;;
81504;SDS011;70907;52.514;5.726;2023-07-09T08:27:11;14.52;;;11.05;;
81504;SDS011;70907;52.514;5.726;2023-07-09T08:29:37;14.40;;;11.80;;
81504;SDS011;70907;52.514;5.726;2023-07-09T08:32:02;17.50;;;13.02;;
81504;SDS011;70907;52.514;5.726;2023-07-09T08:34:28;17.65;;;15.60;;
81504;SDS011;70907;52.514;5.726;2023-07-09T08:36:54;21.55;;;16.20;;
81504;SDS011;70907;52.514;5.726;2023-07-09T08:39:20;20.88;;;17.45;;
81504;SDS011;70907;52.514;5.726;2023-07-09T08:41:52;21.80;;;15.95;;
81504;SDS011;70907;52.514;5.726;2023-07-09T08:45:07;22.92;;;17.55;;
81504;SDS011;70907;52.514;5.726;2023-07-09T08:47:54;18.73;;;14.93;;
81504;SDS011;70907;52.514;5.726;2023-07-09T08:50:24;18.20;;;14.15;;
81504;SDS011;70907;52.514;5.726;2023-07-09T08:52:54;17.80;;;13.43;;
81504;SDS011;70907;52.514;5.726;2023-07-09T08:55:24;15.98;;;13.60;;
81504;SDS011;70907;52.514;5.726;2023-07-09T08:57:56;16.10;;;13.27;;
81504;SDS011;70907;52.514;5.726;2023-07-09T09:00:57;16.23;;;12.85;;
81504;SDS011;70907;52.514;5.726;2023-07-09T09:06:02;15.82;;;11.02;;
81504;SDS011;70907;52.514;5.726;2023-07-09T09:08:34;13.48;;;11.43;;
81504;SDS011;70907;52.514;5.726;2023-07-09T09:11:27;18.15;;;12.27;;
81504;SDS011;70907;52.514;5.726;2023-07-09T09:14:01;17.02;;;14.65;;
81504;SDS011;70907;52.514;5.726;2023-07-09T09:16:30;20.27;;;15.35;;
81504;SDS011;70907;52.514;5.726;2023-07-09T09:19:03;17.70;;;15.40;;
81504;SDS011;70907;52.514;5.726;2023-07-09T09:21:41;16.70;;;14.15;;
81504;SDS011;70907;52.514;5.726;2023-07-09T09:24:51;18.48;;;14.05;;
81504;SDS011;70907;52.514;5.726;2023-07-09T09:26:59;19.75;;;15.85;;
81504;SDS011;70907;52.514;5.726;2023-07-09T09:29:25;18.35;;;13.05;;
81504;SDS011;70907;52.514;5.726;2023-07-09T09:31:53;18.38;;;14.20;;
81504;SDS011;70907;52.514;5.726;2023-07-09T09:34:27;17.23;;;14.40;;
81504;SDS011;70907;52.514;5.726;2023-07-09T09:36:54;15.70;;;11.95;;
81504;SDS011;70907;52.514;5.726;2023-07-09T09:39:22;14.98;;;12.02;;
81504;SDS011;70907;52.514;5.726;2023-07-09T09:41:49;16.80;;;13.05;;
81504;SDS011;70907;52.514;5.726;2023-07-09T09:44:19;18.25;;;13.80;;
81504;SDS011;70907;52.514;5.726;2023-07-09T09:46:47;16.27;;;13.10;;
81504;SDS011;70907;52.514;5.726;2023-07-09T09:49:14;17.50;;;13.52;;
81504;SDS011;70907;52.514;5.726;2023-07-09T09:51:40;17.47;;;12.40;;
81504;SDS011;70907;52.514;5.726;2023-07-09T09:54:16;17.00;;;11.45;;
81504;SDS011;70907;52.514;5.726;2023-07-09T09:56:43;15.77;;;13.15;;
81504;SDS011;70907;52.514;5.726;2023-07-09T09:59:27;17.90;;;14.45;;
81504;SDS011;70907;52.514;5.726;2023-07-09T10:01:57;17.50;;;14.20;;
81504;SDS011;70907;52.514;5.726;2023-07-09T10:04:24;16.52;;;13.13;;
81504;SDS011;70907;52.514;5.726;2023-07-09T10:06:50;17.10;;;13.23;;
81504;SDS011;70907;52.514;5.726;2023-07-09T10:14:38;16.60;;;13.27;;
81504;SDS011;70907;52.514;5.726;2023-07-09T10:17:16;18.15;;;14.25;;
81504;SDS011;70907;52.514;5.726;2023-07-09T10:22:32;18.02;;;14.93;;
81504;SDS011;70907;52.514;5.726;2023-07-09T10:28:24;20.25;;;15.77;;
81504;SDS011;70907;52.514;5.726;2023-07-09T10:36:26;19.50;;;15.82;;
81504;SDS011;70907;52.514;5.726;2023-07-09T10:39:01;18.98;;;16.77;;
81504;SDS011;70907;52.514;5.726;2023-07-09T10:41:31;25.70;;;17.20;;
81504;SDS011;70907;52.514;5.726;2023-07-09T10:44:18;20.35;;;16.92;;
81504;SDS011;70907;52.514;5.726;2023-07-09T10:46:49;19.63;;;16.92;;
81504;SDS011;70907;52.514;5.726;2023-07-09T10:49:20;18.58;;;15.43;;
81504;SDS011;70907;52.514;5.726;2023-07-09T10:51:54;22.33;;;18.08;;
81504;SDS011;70907;52.514;5.726;2023-07-09T10:54:30;22.33;;;16.95;;
81504;SDS011;70907;52.514;5.726;2023-07-09T10:57:02;22.10;;;16.77;;
81504;SDS011;70907;52.514;5.726;2023-07-09T10:59:32;21.08;;;17.75;;
81504;SDS011;70907;52.514;5.726;2023-07-09T11:02:06;19.77;;;15.70;;
81504;SDS011;70907;52.514;5.726;2023-07-09T11:04:53;18.95;;;14.35;;
81504;SDS011;70907;52.514;5.726;2023-07-09T11:07:45;22.02;;;15.40;;
81504;SDS011;70907;52.514;5.726;2023-07-09T11:10:27;19.17;;;16.08;;
81504;SDS011;70907;52.514;5.726;2023-07-09T11:13:17;18.05;;;14.88;;
81504;SDS011;70907;52.514;5.726;2023-07-09T11:15:59;16.67;;;14.40;;
81504;SDS011;70907;52.514;5.726;2023-07-09T11:18:32;17.25;;;12.38;;
81504;SDS011;70907;52.514;5.726;2023-07-09T11:21:07;16.70;;;12.82;;
81504;SDS011;70907;52.514;5.726;2023-07-09T11:23:43;15.27;;;11.50;;
81504;SDS011;70907;52.514;5.726;2023-07-09T11:28:40;14.43;;;11.35;;
81504;SDS011;70907;52.514;5.726;2023-07-09T11:31:20;14.52;;;11.15;;
81504;SDS011;70907;52.514;5.726;2023-07-09T11:33:49;10.60;;;9.50;;
81504;SDS011;70907;52.514;5.726;2023-07-09T11:36:27;11.63;;;9.77;;
81504;SDS011;70907;52.514;5.726;2023-07-09T11:38:54;11.82;;;9.65;;
81504;SDS011;70907;52.514;5.726;2023-07-09T11:44:11;12.13;;;8.98;;
81504;SDS011;70907;52.514;5.726;2023-07-09T11:50:03;12.10;;;9.13;;
81504;SDS011;70907;52.514;5.726;2023-07-09T11:52:39;14.20;;;8.32;;
81504;SDS011;70907;52.514;5.726;2023-07-09T11:55:20;10.80;;;8.73;;
81504;SDS011;70907;52.514;5.726;2023-07-09T11:57:58;12.48;;;9.48;;
81504;SDS011;70907;52.514;5.726;2023-07-09T12:00:26;12.80;;;9.20;;
81504;SDS011;70907;52.514;5.726;2023-07-09T12:02:53;11.25;;;9.07;;
81504;SDS011;70907;52.514;5.726;2023-07-09T12:05:22;13.20;;;9.57;;
81504;SDS011;70907;52.514;5.726;2023-07-09T12:07:52;12.30;;;9.70;;
81504;SDS011;70907;52.514;5.726;2023-07-09T12:10:22;10.48;;;9.25;;
81504;SDS011;70907;52.514;5.726;2023-07-09T12:12:58;13.68;;;9.55;;
81504;SDS011;70907;52.514;5.726;2023-07-09T12:15:28;14.80;;;10.38;;
81504;SDS011;70907;52.514;5.726;2023-07-09T12:18:00;14.30;;;10.43;;
81504;SDS011;70907;52.514;5.726;2023-07-09T12:20:32;12.98;;;9.52;;
81504;SDS011;70907;52.514;5.726;2023-07-09T12:23:00;13.32;;;10.10;;
81504;SDS011;70907;52.514;5.726;2023-07-09T12:25:35;12.35;;;9.48;;
81504;SDS011;70907;52.514;5.726;2023-07-09T12:28:00;12.82;;;9.07;;
81504;SDS011;70907;52.514;5.726;2023-07-09T12:30:25;12.77;;;9.53;;
81504;SDS011;70907;52.514;5.726;2023-07-09T12:32:51;11.82;;;9.40;;
81504;SDS011;70907;52.514;5.726;2023-07-09T12:35:19;12.05;;;10.13;;
81504;SDS011;70907;52.514;5.726;2023-07-09T12:37:46;12.65;;;9.15;;
81504;SDS011;70907;52.514;5.726;2023-07-09T12:40:14;12.35;;;9.45;;
81504;SDS011;70907;52.514;5.726;2023-07-09T12:42:42;14.38;;;9.60;;
81504;SDS011;70907;52.514;5.726;2023-07-09T12:45:18;12.30;;;8.93;;
81504;SDS011;70907;52.514;5.726;2023-07-09T12:47:45;11.18;;;8.45;;
81504;SDS011;70907;52.514;5.726;2023-07-09T12:52:55;8.52;;;7.28;;
81504;SDS011;70907;52.514;5.726;2023-07-09T12:55:23;12.73;;;7.85;;
81504;SDS011;70907;52.514;5.726;2023-07-09T12:57:51;9.35;;;7.78;;
81504;SDS011;70907;52.514;5.726;2023-07-09T13:00:26;9.48;;;7.85;;
81504;SDS011;70907;52.514;5.726;2023-07-09T13:02:55;10.50;;;7.60;;
81504;SDS011;70907;52.514;5.726;2023-07-09T13:05:24;9.98;;;8.23;;
81504;SDS011;70907;52.514;5.726;2023-07-09T13:07:55;11.77;;;7.95;;
81504;SDS011;70907;52.514;5.726;2023-07-09T13:10:27;10.43;;;7.40;;
81504;SDS011;70907;52.514;5.726;2023-07-09T13:13:00;10.60;;;7.28;;
81504;SDS011;70907;52.514;5.726;2023-07-09T13:15:28;9.90;;;6.93;;
81504;SDS011;70907;52.514;5.726;2023-07-09T13:18:04;10.55;;;7.97;;
81504;SDS011;70907;52.514;5.726;2023-07-09T13:20:33;13.23;;;8.35;;
81504;SDS011;70907;52.514;5.726;2023-07-09T13:23:04;11.05;;;7.85;;
81504;SDS011;70907;52.514;5.726;2023-07-09T13:25:34;10.18;;;7.28;;
81504;SDS011;70907;52.514;5.726;2023-07-09T13:28:01;10.00;;;6.22;;
81504;SDS011;70907;52.514;5.726;2023-07-09T13:30:26;10.10;;;5.88;;
81504;SDS011;70907;52.514;5.726;2023-07-09T13:32:51;7.57;;;6.10;;
81504;SDS011;70907;52.514;5.726;2023-07-09T13:35:17;10.00;;;6.23;;
81504;SDS011;70907;52.514;5.726;2023-07-09T13:37:44;8.15;;;6.25;;
81504;SDS011;70907;52.514;5.726;2023-07-09T13:40:11;8.25;;;5.70;;
81504;SDS011;70907;52.514;5.726;2023-07-09T13:42:39;7.50;;;4.93;;
81504;SDS011;70907;52.514;5.726;2023-07-09T13:45:08;6.18;;;3.13;;
81504;SDS011;70907;52.514;5.726;2023-07-09T13:47:41;4.82;;;3.25;;
81504;SDS011;70907;52.514;5.726;2023-07-09T13:50:07;5.97;;;4.30;;
81504;SDS011;70907;52.514;5.726;2023-07-09T13:52:32;10.13;;;3.88;;
81504;SDS011;70907;52.514;5.726;2023-07-09T13:54:59;5.65;;;3.60;;
81504;SDS011;70907;52.514;5.726;2023-07-09T13:57:24;8.10;;;4.33;;
81504;SDS011;70907;52.514;5.726;2023-07-09T13:59:49;6.43;;;3.90;;
81504;SDS011;70907;52.514;5.726;2023-07-09T14:02:26;5.55;;;3.50;;
81504;SDS011;70907;52.514;5.726;2023-07-09T14:05:01;6.05;;;3.50;;
81504;SDS011;70907;52.514;5.726;2023-07-09T14:07:29;5.68;;;3.28;;
81504;SDS011;70907;52.514;5.726;2023-07-09T14:09:59;6.05;;;3.65;;
81504;SDS011;70907;52.514;5.726;2023-07-09T14:12:26;7.15;;;3.25;;
81504;SDS011;70907;52.514;5.726;2023-07-09T14:14:52;4.78;;;3.05;;
81504;SDS011;70907;52.514;5.726;2023-07-09T14:17:20;5.65;;;3.40;;
81504;SDS011;70907;52.514;5.726;2023-07-09T14:19:47;4.35;;;2.97;;
81504;SDS011;70907;52.514;5.726;2023-07-09T14:22:34;4.40;;;2.83;;
81504;SDS011;70907;52.514;5.726;2023-07-09T14:24:59;4.97;;;2.90;;
81504;SDS011;70907;52.514;5.726;2023-07-09T14:27:26;4.45;;;2.80;;
81504;SDS011;70907;52.514;5.726;2023-07-09T14:29:51;6.35;;;3.05;;
81504;SDS011;70907;52.514;5.726;2023-07-09T14:32:36;5.68;;;3.22;;
81504;SDS011;70907;52.514;5.726;2023-07-09T14:35:09;6.80;;;3.42;;
81504;SDS011;70907;52.514;5.726;2023-07-09T14:37:37;7.97;;;3.63;;
81504;SDS011;70907;52.514;5.726;2023-07-09T14:40:03;8.07;;;3.47;;
81504;SDS011;70907;52.514;5.726;2023-07-09T14:42:30;7.95;;;3.83;;
81504;SDS011;70907;52.514;5.726;2023-07-09T14:44:55;11.77;;;3.88;;
81504;SDS011;70907;52.514;5.726;2023-07-09T14:47:21;6.93;;;3.35;;
81504;SDS011;70907;52.514;5.726;2023-07-09T14:49:46;7.30;;;3.47;;
81504;SDS011;70907;52.514;5.726;2023-07-09T14:52:14;9.93;;;4.32;;
81504;SDS011;70907;52.514;5.726;2023-07-09T14:54:42;6.75;;;3.30;;
81504;SDS011;70907;52.514;5.726;2023-07-09T14:57:16;9.32;;;4.38;;
81504;SDS011;70907;52.514;5.726;2023-07-09T14:59:44;9.13;;;3.55;;
81504;SDS011;70907;52.514;5.726;2023-07-09T15:02:11;9.35;;;3.80;;
81504;SDS011;70907;52.514;5.726;2023-07-09T15:05:05;9.27;;;3.97;;
81504;SDS011;70907;52.514;5.726;2023-07-09T15:07:37;9.05;;;4.20;;
81504;SDS011;70907;52.514;5.726;2023-07-09T15:10:02;8.70;;;4.07;;
81504;SDS011;70907;52.514;5.726;2023-07-09T15:12:32;6.80;;;3.92;;